createdAt,value
2022-10-15T00:00:52.099Z,1.85
2022-10-15T00:02:57.128Z,1.73
2022-10-15T00:05:02.497Z,3.42
2022-10-15T00:07:07.549Z,1.52
2022-10-15T00:09:12.571Z,1.25
2022-10-15T00:11:20.669Z,1.85
2022-10-15T00:13:26.158Z,1.15
2022-10-15T00:15:31.601Z,1.00
2022-10-15T00:17:39.445Z,2.13
2022-10-15T00:19:44.453Z,3.95
2022-10-15T00:21:49.954Z,2.40
2022-10-15T00:23:55.469Z,4.13
2022-10-15T00:26:13.641Z,1.88
2022-10-15T00:28:19.528Z,1.83
2022-10-15T00:30:24.573Z,2.10
2022-10-15T00:32:30.919Z,3.20
2022-10-15T00:34:38.861Z,4.53
2022-10-15T00:36:44.732Z,2.15
2022-10-15T00:38:50.664Z,4.90
2022-10-15T00:40:55.982Z,5.15
2022-10-15T00:43:01.755Z,1.10
2022-10-15T00:45:08.209Z,2.03
2022-10-15T00:47:21.253Z,4.80
2022-10-15T00:49:33.348Z,2.83
2022-10-15T00:51:50.437Z,3.50
2022-10-15T00:53:55.902Z,1.70
2022-10-15T00:56:03.644Z,1.40
2022-10-15T01:00:20.787Z,6.88
2022-10-15T01:02:26.281Z,6.00
2022-10-15T01:04:33.522Z,4.45
2022-10-15T01:06:42.251Z,5.90
2022-10-15T01:08:47.860Z,1.50
2022-10-15T01:11:06.083Z,2.28
2022-10-15T01:13:20.697Z,2.75
2022-10-15T01:15:32.283Z,2.88
2022-10-15T01:17:46.119Z,2.83
2022-10-15T01:20:30.313Z,3.70
2022-10-15T01:22:58.117Z,4.05
2022-10-15T01:27:48.041Z,3.72
2022-10-15T01:30:20.180Z,5.13
2022-10-15T01:32:32.131Z,4.55
2022-10-15T01:34:49.872Z,4.88
2022-10-15T01:37:06.104Z,2.55
2022-10-15T01:39:21.821Z,2.80
2022-10-15T01:41:35.047Z,4.43
2022-10-15T01:43:49.718Z,4.68
2022-10-15T01:46:23.837Z,3.10
2022-10-15T01:48:41.493Z,3.00
2022-10-15T01:55:03.883Z,3.80
2022-10-15T01:59:18.010Z,4.50
2022-10-15T02:01:26.221Z,5.90
2022-10-15T02:05:43.646Z,3.10
2022-10-15T02:07:59.685Z,4.20
2022-10-15T02:10:16.072Z,5.82
2022-10-15T02:12:39.321Z,5.60
2022-10-15T02:14:55.928Z,5.00
2022-10-15T02:17:11.053Z,5.68
2022-10-15T02:19:23.674Z,5.95
2022-10-15T02:21:35.830Z,5.97
2022-10-15T02:23:50.778Z,6.88
2022-10-15T02:25:58.308Z,4.72
2022-10-15T02:30:13.637Z,4.68
2022-10-15T02:32:25.187Z,4.20
2022-10-15T02:34:34.011Z,6.63
2022-10-15T02:36:42.774Z,3.97
2022-10-15T02:38:49.050Z,6.20
2022-10-15T02:40:56.153Z,5.97
2022-10-15T02:43:02.916Z,5.82
2022-10-15T02:45:10.593Z,4.57
2022-10-15T02:47:19.033Z,5.68
2022-10-15T02:49:28.079Z,4.53
2022-10-15T02:53:40.023Z,3.95
2022-10-15T02:55:46.019Z,3.83
2022-10-15T02:57:52.335Z,4.83
2022-10-15T02:59:57.598Z,3.65
2022-10-15T03:02:02.580Z,4.15
2022-10-15T03:04:09.309Z,4.97
2022-10-15T03:06:18.356Z,4.90
2022-10-15T03:08:25.199Z,6.72
2022-10-15T03:10:30.957Z,3.50
2022-10-15T03:12:36.442Z,3.97
2022-10-15T03:14:42.817Z,3.92
2022-10-15T03:18:52.956Z,5.10
2022-10-15T03:20:59.741Z,5.35
2022-10-15T03:23:07.502Z,6.95
2022-10-15T03:25:12.765Z,3.95
2022-10-15T03:27:18.654Z,4.13
2022-10-15T03:29:23.811Z,4.80
2022-10-15T03:31:36.345Z,4.80
2022-10-15T03:33:43.233Z,3.75
2022-10-15T03:35:48.745Z,5.05
2022-10-15T03:37:54.789Z,6.50
2022-10-15T03:40:03.456Z,6.03
2022-10-15T03:42:10.202Z,5.55
2022-10-15T03:44:23.617Z,5.53
2022-10-15T03:46:40.157Z,4.18
2022-10-15T03:48:45.646Z,4.45
2022-10-15T03:50:52.417Z,4.38
2022-10-15T03:52:58.802Z,8.88
2022-10-15T03:55:08.113Z,4.72
2022-10-15T03:57:13.287Z,7.80
2022-10-15T03:59:24.396Z,4.93
2022-10-15T04:01:35.985Z,5.70
2022-10-15T04:03:42.369Z,4.30
2022-10-15T04:05:54.727Z,6.15
2022-10-15T04:08:03.694Z,8.35
2022-10-15T04:10:14.972Z,4.20
2022-10-15T04:14:26.880Z,4.22
2022-10-15T04:16:32.193Z,3.55
2022-10-15T04:20:50.906Z,7.32
2022-10-15T04:23:00.020Z,4.32
2022-10-15T04:25:06.776Z,8.60
2022-10-15T04:29:46.033Z,7.50
2022-10-15T04:31:53.473Z,9.60
2022-10-15T04:33:58.473Z,8.50
2022-10-15T04:36:06.766Z,9.63
2022-10-15T04:38:24.492Z,15.60
2022-10-15T04:40:41.406Z,16.52
2022-10-15T04:42:49.103Z,13.98
2022-10-15T04:44:54.509Z,15.63
2022-10-15T04:46:59.907Z,17.15
2022-10-15T04:49:27.929Z,15.45
2022-10-15T04:51:34.184Z,16.98
2022-10-15T04:54:01.799Z,16.83
2022-10-15T04:58:19.678Z,11.52
2022-10-15T05:00:24.889Z,14.18
2022-10-15T05:02:36.941Z,16.00
2022-10-15T05:05:09.979Z,10.90
2022-10-15T05:07:25.751Z,17.08
2022-10-15T05:09:36.714Z,16.00
2022-10-15T05:11:42.105Z,16.13
2022-10-15T05:13:55.061Z,15.95
2022-10-15T05:16:10.840Z,13.35
2022-10-15T05:18:16.288Z,13.73
2022-10-15T05:20:29.233Z,13.50
2022-10-15T05:22:35.658Z,17.73
2022-10-15T05:24:41.789Z,17.05
2022-10-15T05:26:57.730Z,17.15
2022-10-15T05:29:08.859Z,18.95
2022-10-15T05:33:24.706Z,17.90
2022-10-15T05:35:30.628Z,18.85
2022-10-15T05:37:40.496Z,20.33
2022-10-15T05:39:46.029Z,19.60
2022-10-15T05:41:51.160Z,19.40
2022-10-15T05:44:02.170Z,18.27
2022-10-15T05:46:12.320Z,23.13
2022-10-15T05:48:17.551Z,19.27
2022-10-15T05:50:22.903Z,21.27
2022-10-15T05:52:32.378Z,20.13
2022-10-15T05:54:51.131Z,14.02
2022-10-15T05:56:56.773Z,19.02
2022-10-15T05:59:03.030Z,12.45
2022-10-15T06:01:13.494Z,11.40
2022-10-15T06:03:20.168Z,10.82
2022-10-15T06:05:25.895Z,7.72
2022-10-15T06:07:32.231Z,9.50
2022-10-15T06:09:40.980Z,9.13
2022-10-15T06:11:46.618Z,5.70
2022-10-15T06:13:56.889Z,6.28
2022-10-15T06:16:02.165Z,6.22
2022-10-15T06:18:10.423Z,7.13
2022-10-15T06:20:16.215Z,6.93
2022-10-15T06:22:21.351Z,7.45
2022-10-15T06:24:26.388Z,4.50
2022-10-15T06:26:31.695Z,6.20
2022-10-15T06:28:39.997Z,6.00
2022-10-15T06:30:45.372Z,7.07
2022-10-15T06:32:51.779Z,4.63
2022-10-15T06:34:59.777Z,5.28
2022-10-15T06:39:09.649Z,5.75
2022-10-15T06:41:16.637Z,5.32
2022-10-15T06:43:23.554Z,4.10
2022-10-15T06:45:28.562Z,3.80
2022-10-15T06:47:33.740Z,4.28
2022-10-15T06:49:38.720Z,3.03
2022-10-15T06:51:46.444Z,3.28
2022-10-15T06:56:00.746Z,2.65
2022-10-15T06:58:05.856Z,5.35
2022-10-15T07:00:13.035Z,3.65
2022-10-15T07:02:19.698Z,4.65
2022-10-15T07:04:26.361Z,4.70
2022-10-15T07:06:31.381Z,4.35
2022-10-15T07:08:39.557Z,2.40
2022-10-15T07:10:44.598Z,2.45
2022-10-15T07:12:49.961Z,3.90
2022-10-15T07:14:55.036Z,4.13
2022-10-15T07:17:01.147Z,2.00
2022-10-15T07:19:07.133Z,2.17
2022-10-15T07:21:13.689Z,3.92
2022-10-15T07:23:20.225Z,1.80
2022-10-15T07:25:30.949Z,2.28
2022-10-15T07:27:35.967Z,2.65
2022-10-15T07:29:40.995Z,2.83
2022-10-15T07:31:46.910Z,2.35
2022-10-15T07:33:54.592Z,5.68
2022-10-15T07:35:59.603Z,4.82
2022-10-15T07:38:04.828Z,2.97
2022-10-15T07:40:11.940Z,2.95
2022-10-15T07:42:20.511Z,2.38
2022-10-15T07:44:26.227Z,2.78
2022-10-15T07:46:31.240Z,3.28
2022-10-15T07:48:36.733Z,3.05
2022-10-15T07:50:42.354Z,2.13
2022-10-15T07:52:47.672Z,4.28
2022-10-15T07:54:52.715Z,2.83
2022-10-15T07:56:57.774Z,2.75
2022-10-15T07:59:05.459Z,3.95
2022-10-15T08:03:16.824Z,2.47
2022-10-15T08:05:21.927Z,1.77
2022-10-15T08:07:26.961Z,2.30
2022-10-15T08:09:31.998Z,2.10
2022-10-15T08:11:37.097Z,2.65
2022-10-15T08:13:44.504Z,2.63
2022-10-15T08:15:56.262Z,3.70
2022-10-15T08:18:04.355Z,4.40
2022-10-15T08:20:10.960Z,4.80
2022-10-15T08:22:16.061Z,4.38
2022-10-15T08:24:22.025Z,4.70
2022-10-15T08:26:27.034Z,7.82
2022-10-15T08:28:33.416Z,6.88
2022-10-15T08:30:38.493Z,7.13
2022-10-15T08:32:51.157Z,4.78
2022-10-15T08:34:56.182Z,5.03
2022-10-15T08:37:01.261Z,5.75
2022-10-15T08:39:07.266Z,5.30
2022-10-15T08:41:27.147Z,3.67
2022-10-15T08:43:38.808Z,5.07
2022-10-15T08:45:58.050Z,4.57
2022-10-15T08:48:10.464Z,4.68
2022-10-15T08:50:28.595Z,6.10
2022-10-15T08:52:44.031Z,6.93
2022-10-15T08:54:49.130Z,6.50
2022-10-15T08:57:08.293Z,6.22
2022-10-15T08:59:26.012Z,5.82
2022-10-15T09:01:40.482Z,4.95
2022-10-15T09:04:03.615Z,5.00
2022-10-15T09:06:18.219Z,5.90
2022-10-15T09:08:31.387Z,4.75
2022-10-15T09:10:46.295Z,5.72
2022-10-15T09:13:01.464Z,4.57
2022-10-15T09:15:08.474Z,3.75
2022-10-15T09:17:25.971Z,4.10
2022-10-15T09:19:37.422Z,3.50
2022-10-15T09:21:45.059Z,2.85
2022-10-15T09:23:50.132Z,2.50
2022-10-15T09:26:05.076Z,5.00
2022-10-15T09:28:13.765Z,4.20
2022-10-15T09:30:42.335Z,4.82
2022-10-15T09:32:54.547Z,3.97
2022-10-15T09:35:15.318Z,3.70
2022-10-15T09:37:28.633Z,7.88
2022-10-15T09:39:56.850Z,3.25
2022-10-15T09:42:13.400Z,3.03
2022-10-15T09:44:21.183Z,4.50
2022-10-15T09:46:26.398Z,2.80
2022-10-15T09:48:39.020Z,3.53
2022-10-15T09:50:57.555Z,3.58
2022-10-15T09:53:15.657Z,2.85
2022-10-15T09:55:37.895Z,2.35
2022-10-15T09:57:45.041Z,3.67
2022-10-15T10:00:00.885Z,2.42
2022-10-15T10:02:20.863Z,2.30
2022-10-15T10:04:30.912Z,2.40
2022-10-15T10:06:48.076Z,2.72
2022-10-15T10:08:57.419Z,2.20
2022-10-15T10:11:05.169Z,2.53
2022-10-15T10:13:27.614Z,2.20
2022-10-15T10:15:38.421Z,2.05
2022-10-15T10:17:56.547Z,2.38
2022-10-15T10:20:20.676Z,4.18
2022-10-15T10:22:30.199Z,1.60
2022-10-15T10:24:38.388Z,3.88
2022-10-15T10:26:46.892Z,2.42
2022-10-15T10:29:04.636Z,1.85
2022-10-15T10:31:12.144Z,1.40
2022-10-15T10:33:29.555Z,2.90
2022-10-15T10:37:47.619Z,1.67
2022-10-15T10:39:58.057Z,1.40
2022-10-15T10:42:09.165Z,1.60
2022-10-15T10:44:29.399Z,3.10
2022-10-15T10:46:34.549Z,2.13
2022-10-15T10:48:49.757Z,1.45
2022-10-15T10:51:09.523Z,2.58
2022-10-15T10:53:26.804Z,1.73
2022-10-15T10:55:42.521Z,1.95
2022-10-15T10:57:54.466Z,2.58
2022-10-15T11:00:01.298Z,3.97
2022-10-15T11:02:12.564Z,2.40
2022-10-15T11:04:25.511Z,5.35
2022-10-15T11:06:59.204Z,3.88
2022-10-15T11:09:23.989Z,1.50
2022-10-15T11:11:42.674Z,1.48
2022-10-15T11:13:59.360Z,1.48
2022-10-15T11:16:11.563Z,1.83
2022-10-15T11:18:55.935Z,2.28
2022-10-15T11:21:17.638Z,2.38
2022-10-15T11:23:44.580Z,1.33
2022-10-15T11:26:03.038Z,2.05
2022-10-15T11:28:33.177Z,1.55
2022-10-15T11:30:52.567Z,2.97
2022-10-15T11:33:20.008Z,0.73
2022-10-15T11:35:54.656Z,2.45
2022-10-15T11:38:14.727Z,1.90
2022-10-15T11:40:26.714Z,0.68
2022-10-15T11:42:42.683Z,2.08
2022-10-15T11:45:27.963Z,0.98
2022-10-15T11:47:50.860Z,1.67
2022-10-15T11:50:18.156Z,1.10
2022-10-15T11:54:45.061Z,2.30
2022-10-15T11:56:56.053Z,2.42
2022-10-15T11:59:17.207Z,3.53
2022-10-15T12:01:46.774Z,2.58
2022-10-15T12:03:58.819Z,1.77
2022-10-15T12:06:10.335Z,2.92
2022-10-15T12:08:17.975Z,1.90
2022-10-15T12:10:52.742Z,1.02
2022-10-15T12:13:08.916Z,1.65
2022-10-15T12:15:36.564Z,1.20
2022-10-15T12:17:52.313Z,0.88
2022-10-15T12:20:06.312Z,1.98
2022-10-15T12:22:15.024Z,1.13
2022-10-15T12:25:05.958Z,1.63
2022-10-15T12:27:26.542Z,3.83
2022-10-15T12:29:31.901Z,1.35
2022-10-15T12:31:58.063Z,1.63
2022-10-15T12:34:05.886Z,2.80
2022-10-15T12:36:28.307Z,2.08
2022-10-15T12:38:36.354Z,2.80
2022-10-15T12:40:43.388Z,2.00
2022-10-15T12:42:54.823Z,4.25
2022-10-15T12:45:08.574Z,2.42
2022-10-15T12:47:16.781Z,2.40
2022-10-15T12:50:02.503Z,1.75
2022-10-15T12:52:57.614Z,4.25
2022-10-15T12:55:33.477Z,4.03
2022-10-15T12:57:55.449Z,3.15
2022-10-15T13:00:02.366Z,2.78
2022-10-15T13:02:44.802Z,3.20
2022-10-15T13:04:50.453Z,3.20
2022-10-15T13:06:56.842Z,3.58
2022-10-15T13:09:19.499Z,2.20
2022-10-15T13:11:32.428Z,2.97
2022-10-15T13:13:39.798Z,2.20
2022-10-15T13:15:45.096Z,2.00
2022-10-15T13:17:57.452Z,1.30
2022-10-15T13:20:07.981Z,1.38
2022-10-15T13:22:25.938Z,1.40
2022-10-15T13:24:43.167Z,1.08
2022-10-15T13:26:53.511Z,2.08
2022-10-15T13:29:00.925Z,1.55
2022-10-15T13:31:10.224Z,1.80
2022-10-15T13:33:18.665Z,1.58
2022-10-15T13:35:29.117Z,3.63
2022-10-15T13:37:38.041Z,1.58
2022-10-15T13:39:44.303Z,1.40
2022-10-15T13:41:49.458Z,1.88
2022-10-15T13:43:58.833Z,1.52
2022-10-15T13:46:04.632Z,1.00
2022-10-15T13:48:23.115Z,3.22
2022-10-15T13:50:31.344Z,1.80
2022-10-15T13:52:36.468Z,3.60
2022-10-15T13:54:42.848Z,1.70
2022-10-15T13:56:55.751Z,0.60
2022-10-15T13:59:03.054Z,1.52
2022-10-15T14:01:17.545Z,5.03
2022-10-15T14:03:28.621Z,2.63
2022-10-15T14:05:33.637Z,2.35
2022-10-15T14:07:38.755Z,1.40
2022-10-15T14:09:45.015Z,1.15
2022-10-15T14:11:50.160Z,2.83
2022-10-15T14:13:57.492Z,1.35
2022-10-15T14:16:17.911Z,1.75
2022-10-15T14:18:35.788Z,1.73
2022-10-15T14:20:41.040Z,7.43
2022-10-15T14:22:50.957Z,2.53
2022-10-15T14:24:58.284Z,1.00
2022-10-15T14:27:10.000Z,1.10
2022-10-15T14:29:25.027Z,2.92
2022-10-15T14:31:40.916Z,1.65
2022-10-15T14:33:49.105Z,1.30
2022-10-15T14:36:08.090Z,1.83
2022-10-15T14:38:19.759Z,4.00
2022-10-15T14:40:26.094Z,1.20
2022-10-15T14:42:34.510Z,0.85
2022-10-15T14:44:51.862Z,2.90
2022-10-15T14:47:06.283Z,1.15
2022-10-15T14:49:28.539Z,0.77
2022-10-15T14:51:33.864Z,0.85
2022-10-15T14:53:47.344Z,1.92
2022-10-15T14:55:59.188Z,0.32
2022-10-15T14:58:09.904Z,3.05
2022-10-15T15:00:30.367Z,3.13
2022-10-15T15:02:36.188Z,3.10
2022-10-15T15:04:46.792Z,1.35
2022-10-15T15:06:55.637Z,3.13
2022-10-15T15:09:00.985Z,0.68
2022-10-15T15:11:09.731Z,1.15
2022-10-15T15:13:16.893Z,3.10
2022-10-15T15:15:26.703Z,3.13
2022-10-15T15:17:34.036Z,1.73
2022-10-15T15:19:43.753Z,3.65
2022-10-15T15:21:52.044Z,2.40
2022-10-15T15:23:57.163Z,1.98
2022-10-15T15:26:02.893Z,0.75
2022-10-15T15:28:15.805Z,1.00
2022-10-15T15:30:23.641Z,2.78
2022-10-15T15:32:28.802Z,2.17
2022-10-15T15:34:34.493Z,1.17
2022-10-15T15:36:41.123Z,5.50
2022-10-15T15:38:48.759Z,3.88
2022-10-15T15:43:06.563Z,5.38
2022-10-15T15:45:26.227Z,1.73
2022-10-15T15:47:32.873Z,3.00
2022-10-15T15:49:44.459Z,3.43
2022-10-15T15:51:49.533Z,2.08
2022-10-15T15:53:58.582Z,1.25
2022-10-15T15:56:03.595Z,2.80
2022-10-15T15:58:08.909Z,4.72
2022-10-15T16:00:16.318Z,12.75
2022-10-15T16:02:21.336Z,8.65
2022-10-15T16:04:26.997Z,5.97
2022-10-15T16:06:32.149Z,3.10
2022-10-15T16:08:38.724Z,0.90
2022-10-15T16:10:46.679Z,2.25
2022-10-15T16:17:22.035Z,2.28
2022-10-15T16:19:27.401Z,1.17
2022-10-15T16:21:32.822Z,1.10
2022-10-15T16:23:37.889Z,1.80
2022-10-15T16:25:42.937Z,2.03
2022-10-15T16:27:52.028Z,1.85
2022-10-15T16:29:57.038Z,1.20
2022-10-15T16:32:02.269Z,2.08
2022-10-15T16:34:08.221Z,1.80
2022-10-15T16:36:13.545Z,0.70
2022-10-15T16:38:18.664Z,0.80
2022-10-15T16:40:23.688Z,1.35
2022-10-15T16:42:28.951Z,1.50
2022-10-15T16:44:36.753Z,2.50
2022-10-15T16:46:41.874Z,1.42
2022-10-15T16:48:47.626Z,2.95
2022-10-15T16:51:02.331Z,1.83
2022-10-15T16:53:08.450Z,2.60
2022-10-15T16:55:14.104Z,3.90
2022-10-15T16:57:19.090Z,0.70
2022-10-15T16:59:24.484Z,1.15
2022-10-15T17:01:33.174Z,1.83
2022-10-15T17:03:40.485Z,1.30
2022-10-15T17:05:45.973Z,0.35
2022-10-15T17:07:51.011Z,1.23
2022-10-15T17:09:56.663Z,1.45
2022-10-15T17:12:01.925Z,1.20
2022-10-15T17:14:10.506Z,0.47
2022-10-15T17:16:18.317Z,0.60
2022-10-15T17:18:27.024Z,0.60
2022-10-15T17:20:34.158Z,0.57
2022-10-15T17:22:40.279Z,1.60
2022-10-15T17:24:45.532Z,1.33
2022-10-15T17:26:51.633Z,1.33
2022-10-15T17:28:57.449Z,3.17
2022-10-15T17:31:07.278Z,2.80
2022-10-15T17:33:12.377Z,0.60
2022-10-15T17:35:20.847Z,1.27
2022-10-15T17:37:26.478Z,0.80
2022-10-15T17:39:31.760Z,0.90
2022-10-15T17:41:36.802Z,1.33
2022-10-15T17:43:42.701Z,0.82
2022-10-15T17:45:47.789Z,2.92
2022-10-15T17:47:53.801Z,1.17
2022-10-15T17:49:59.619Z,1.42
2022-10-15T17:52:07.333Z,2.05
2022-10-15T17:54:13.035Z,1.25
2022-10-15T17:56:20.694Z,2.03
2022-10-15T17:58:26.164Z,1.40
2022-10-15T18:00:31.205Z,1.58
2022-10-15T18:02:36.375Z,1.00
2022-10-15T18:04:42.865Z,0.60
2022-10-15T18:06:48.600Z,3.50
2022-10-15T18:09:05.008Z,1.33
2022-10-15T18:11:11.876Z,0.80
2022-10-15T18:13:17.392Z,1.20
2022-10-15T18:15:22.791Z,0.60
2022-10-15T18:17:28.414Z,3.78
2022-10-15T18:19:33.993Z,1.58
2022-10-15T18:21:39.287Z,2.90
2022-10-15T18:23:44.475Z,2.67
2022-10-15T18:25:52.132Z,0.63
2022-10-15T18:27:57.295Z,0.82
2022-10-15T18:30:02.308Z,0.93
2022-10-15T18:32:07.910Z,2.00
2022-10-15T18:34:13.044Z,1.10
2022-10-15T18:36:20.979Z,1.75
2022-10-15T18:38:26.422Z,2.15
2022-10-15T18:40:40.091Z,1.00
2022-10-15T18:42:49.080Z,1.48
2022-10-15T18:44:58.083Z,2.25
2022-10-15T18:47:06.458Z,1.40
2022-10-15T18:49:22.254Z,1.23
2022-10-15T18:51:27.875Z,1.98
2022-10-15T18:53:32.922Z,1.20
2022-10-15T18:55:37.958Z,1.40
2022-10-15T18:57:51.954Z,0.82
2022-10-15T19:00:16.428Z,2.53
2022-10-15T19:02:21.797Z,0.70
2022-10-15T19:04:28.634Z,0.80
2022-10-15T19:06:36.802Z,3.28
2022-10-15T19:08:41.888Z,3.08
2022-10-15T19:10:47.419Z,0.85
2022-10-15T19:12:55.022Z,1.10
2022-10-15T19:15:00.577Z,1.48
2022-10-15T19:17:05.630Z,1.23
2022-10-15T19:19:11.302Z,2.08
2022-10-15T19:21:16.395Z,2.17
2022-10-15T19:23:21.929Z,3.38
2022-10-15T19:25:27.233Z,6.63
2022-10-15T19:27:32.470Z,1.48
2022-10-15T19:29:40.885Z,3.22
2022-10-15T19:31:49.424Z,2.63
2022-10-15T19:33:54.783Z,3.63
2022-10-15T19:36:00.101Z,2.50
2022-10-15T19:38:05.303Z,1.13
2022-10-15T19:40:13.814Z,1.60
2022-10-15T19:42:19.030Z,0.98
2022-10-15T19:44:27.925Z,2.03
2022-10-15T19:46:35.585Z,1.27
2022-10-15T19:48:41.193Z,1.35
2022-10-15T19:50:52.612Z,1.00
2022-10-15T19:53:01.912Z,2.45
2022-10-15T19:55:08.406Z,1.20
2022-10-15T19:57:14.621Z,1.42
2022-10-15T19:59:19.688Z,1.48
2022-10-15T20:01:25.258Z,1.35
2022-10-15T20:06:00.349Z,2.75
2022-10-15T20:08:07.577Z,5.53
2022-10-15T20:10:13.049Z,2.00
2022-10-15T20:12:18.541Z,1.60
2022-10-15T20:14:23.613Z,1.40
2022-10-15T20:16:32.768Z,1.67
2022-10-15T20:18:41.901Z,1.88
2022-10-15T20:20:48.644Z,2.90
2022-10-15T20:22:53.681Z,1.42
2022-10-15T20:24:58.789Z,1.42
2022-10-15T20:27:03.829Z,1.73
2022-10-15T20:29:09.995Z,2.42
2022-10-15T20:31:20.401Z,2.22
2022-10-15T20:33:27.210Z,1.50
2022-10-15T20:35:36.477Z,0.77
2022-10-15T20:37:41.958Z,1.92
2022-10-15T20:39:47.244Z,0.60
2022-10-15T20:41:52.660Z,1.60
2022-10-15T20:43:59.072Z,1.42
2022-10-15T20:46:04.473Z,1.13
2022-10-15T20:48:14.052Z,1.35
2022-10-15T20:50:23.945Z,0.98
2022-10-15T20:52:32.327Z,0.82
2022-10-15T20:54:38.325Z,1.00
2022-10-15T20:56:44.811Z,2.33
2022-10-15T20:58:50.039Z,1.65
2022-10-15T21:00:55.145Z,1.73
2022-10-15T21:03:00.570Z,1.52
2022-10-15T21:05:05.757Z,0.88
2022-10-15T21:07:10.901Z,2.45
2022-10-15T21:09:18.923Z,1.30
2022-10-15T21:11:24.221Z,3.33
2022-10-15T21:13:29.328Z,3.10
2022-10-15T21:15:34.958Z,1.55
2022-10-15T21:17:41.187Z,3.42
2022-10-15T21:19:50.294Z,2.30
2022-10-15T21:21:58.004Z,1.73
2022-10-15T21:24:06.897Z,2.00
2022-10-15T21:26:18.190Z,2.95
2022-10-15T21:28:23.358Z,3.15
2022-10-15T21:30:28.550Z,2.90
2022-10-15T21:32:33.992Z,2.63
2022-10-15T21:37:04.846Z,2.97
2022-10-15T21:39:11.488Z,3.35
2022-10-15T21:41:19.186Z,5.35
2022-10-15T21:43:24.544Z,2.58
2022-10-15T21:45:29.645Z,4.20
2022-10-15T21:47:35.287Z,2.85
2022-10-15T21:49:42.014Z,2.08
2022-10-15T21:51:47.193Z,5.22
2022-10-15T21:53:53.217Z,5.53
2022-10-15T21:55:59.327Z,2.00
2022-10-15T21:58:06.983Z,5.22
2022-10-15T22:02:24.893Z,7.45
2022-10-15T22:04:29.973Z,3.60
2022-10-15T22:06:36.311Z,3.60
2022-10-15T22:08:41.642Z,3.28
2022-10-15T22:10:46.648Z,3.90
2022-10-15T22:12:54.723Z,6.57
2022-10-15T22:15:02.711Z,5.05
2022-10-15T22:17:07.827Z,2.90
2022-10-15T22:19:17.900Z,4.28
2022-10-15T22:21:27.368Z,3.05
2022-10-15T22:23:32.404Z,4.78
2022-10-15T22:25:38.230Z,4.43
2022-10-15T22:27:43.369Z,6.15
2022-10-15T22:31:58.426Z,6.25
2022-10-15T22:34:04.787Z,7.28
2022-10-15T22:36:17.803Z,7.18
2022-10-15T22:38:22.832Z,4.00
2022-10-15T22:40:28.196Z,7.65
2022-10-15T22:44:40.989Z,5.63
2022-10-15T22:46:49.960Z,5.25
2022-10-15T22:48:57.993Z,3.45
2022-10-15T22:51:04.191Z,2.63
2022-10-15T22:53:09.519Z,5.93
2022-10-15T22:55:14.581Z,5.00
2022-10-15T22:57:19.630Z,7.00
2022-10-15T22:59:24.756Z,8.30
2022-10-15T23:04:22.543Z,8.77
2022-10-15T23:06:29.245Z,9.68
2022-10-15T23:08:35.758Z,10.93
2022-10-15T23:10:40.762Z,11.68
2022-10-15T23:12:46.166Z,5.10
2022-10-15T23:14:51.185Z,6.50
2022-10-15T23:16:56.234Z,10.90
2022-10-15T23:19:04.258Z,6.55
2022-10-15T23:21:17.390Z,5.63
2022-10-15T23:23:22.376Z,10.88
2022-10-15T23:25:27.335Z,5.68
2022-10-15T23:27:34.308Z,6.07
2022-10-15T23:29:39.268Z,5.47
2022-10-15T23:31:45.079Z,4.35
2022-10-15T23:33:50.781Z,4.80
2022-10-15T23:36:05.786Z,4.13
2022-10-15T23:38:13.355Z,2.47
2022-10-15T23:40:18.885Z,3.00
2022-10-15T23:42:24.622Z,4.28
2022-10-15T23:44:29.688Z,3.90
2022-10-15T23:46:35.414Z,3.78
2022-10-15T23:48:40.715Z,5.88
2022-10-15T23:50:45.918Z,6.50
2022-10-15T23:52:51.244Z,3.42
2022-10-15T23:54:59.028Z,2.40
2022-10-15T23:57:04.444Z,2.22
2022-10-15T23:59:10.262Z,4.45
